createdAt,value
2022-08-17T00:01:27.161Z,97.01
2022-08-17T00:03:54.906Z,96.69
2022-08-17T00:06:29.496Z,96.39
2022-08-17T00:08:59.276Z,95.11
2022-08-17T00:11:32.600Z,93.43
2022-08-17T00:14:03.879Z,92.14
2022-08-17T00:16:51.916Z,94.33
2022-08-17T00:19:25.485Z,94.21
2022-08-17T00:22:29.787Z,94.64
2022-08-17T00:24:42.416Z,94.51
2022-08-17T00:27:08.867Z,95.04
2022-08-17T00:29:35.322Z,95.19
2022-08-17T00:33:14.906Z,95.85
2022-08-17T00:34:49.758Z,95.52
2022-08-17T00:37:16.264Z,95.07
2022-08-17T00:39:42.762Z,96.55
2022-08-17T00:42:17.252Z,95.76
2022-08-17T00:44:43.670Z,95.59
2022-08-17T00:47:10.111Z,96.28
2022-08-17T00:49:36.570Z,96.33
2022-08-17T00:52:12.021Z,96.73
2022-08-17T00:57:15.037Z,97.56
2022-08-17T00:59:47.137Z,97.08
2022-08-17T01:02:35.005Z,97.49
2022-08-17T01:05:23.471Z,98.15
2022-08-17T01:07:52.885Z,98.64
2022-08-17T01:11:00.335Z,99.05
2022-08-17T01:13:19.658Z,98.44
2022-08-17T01:15:55.315Z,98.68
2022-08-17T01:18:21.821Z,97.43
2022-08-17T01:20:50.769Z,97.31
2022-08-17T01:23:20.748Z,96.24
2022-08-17T01:25:54.033Z,93.13
2022-08-17T01:28:53.030Z,94.58
2022-08-17T01:31:09.232Z,95.12
2022-08-17T01:33:36.376Z,94.52
2022-08-17T01:36:04.123Z,95.16
2022-08-17T01:38:31.856Z,96.00
2022-08-17T01:41:06.852Z,97.88
2022-08-17T01:43:57.292Z,98.62
2022-08-17T01:46:33.638Z,98.66
2022-08-17T01:49:01.171Z,97.78
2022-08-17T01:51:33.170Z,98.77
2022-08-17T01:54:05.151Z,98.54
2022-08-17T01:56:33.094Z,97.84
2022-08-17T01:58:59.566Z,97.77
2022-08-17T02:01:30.045Z,97.01
2022-08-17T02:04:00.926Z,98.16
2022-08-17T02:06:52.697Z,98.19
2022-08-17T02:09:18.366Z,97.45
2022-08-17T02:11:46.236Z,97.45
2022-08-17T02:14:13.023Z,96.93
2022-08-17T02:16:41.256Z,97.22
2022-08-17T02:19:15.728Z,98.04
2022-08-17T02:21:46.776Z,97.49
2022-08-17T02:24:17.489Z,98.31
2022-08-17T02:27:04.495Z,99.44
2022-08-17T02:29:31.022Z,97.93
2022-08-17T02:31:58.573Z,97.64
2022-08-17T02:34:25.807Z,99.25
2022-08-17T02:36:53.391Z,98.84
2022-08-17T02:39:20.094Z,99.36
2022-08-17T02:41:46.571Z,98.46
2022-08-17T02:44:13.508Z,99.49
2022-08-17T02:47:00.421Z,99.63
2022-08-17T02:49:26.859Z,99.25
2022-08-17T02:51:53.291Z,98.65
2022-08-17T02:54:41.727Z,99.12
2022-08-17T02:57:06.128Z,98.70
2022-08-17T02:59:32.543Z,98.82
2022-08-17T03:01:59.000Z,98.86
2022-08-17T03:04:25.460Z,100.00
2022-08-17T03:06:51.903Z,100.00
2022-08-17T03:09:18.323Z,98.72
2022-08-17T03:11:44.944Z,99.69
2022-08-17T03:14:12.430Z,98.20
2022-08-17T03:16:38.887Z,98.48
2022-08-17T03:19:05.745Z,98.58
2022-08-17T03:21:32.174Z,98.23
2022-08-17T03:23:58.651Z,96.88
2022-08-17T03:26:25.228Z,97.75
2022-08-17T03:28:56.112Z,97.58
2022-08-17T03:31:22.585Z,98.80
2022-08-17T03:33:49.106Z,98.34
2022-08-17T03:36:15.641Z,99.21
2022-08-17T03:38:42.078Z,98.46
2022-08-17T03:41:11.562Z,99.54
2022-08-17T03:43:38.048Z,100.00
2022-08-17T03:46:34.759Z,100.00
2022-08-17T03:49:25.276Z,100.00
2022-08-17T03:52:11.471Z,100.00
2022-08-17T03:54:58.192Z,100.00
2022-08-17T03:57:24.754Z,100.00
2022-08-17T03:59:51.333Z,100.00
2022-08-17T04:02:21.333Z,100.00
2022-08-17T04:04:50.899Z,100.00
2022-08-17T04:07:22.012Z,100.00
2022-08-17T04:09:48.476Z,100.00
2022-08-17T04:12:18.598Z,100.00
2022-08-17T04:14:51.932Z,100.00
2022-08-17T04:17:27.357Z,100.00
2022-08-17T04:19:54.845Z,100.00
2022-08-17T04:22:32.283Z,100.00
2022-08-17T04:25:17.934Z,100.00
2022-08-17T04:27:44.354Z,100.00
2022-08-17T04:30:11.755Z,100.00
2022-08-17T04:33:06.283Z,100.00
2022-08-17T04:35:42.655Z,100.00
2022-08-17T04:38:11.997Z,100.00
2022-08-17T04:40:57.048Z,100.00
2022-08-17T04:43:25.351Z,100.00
2022-08-17T04:45:57.149Z,100.00
2022-08-17T04:48:29.608Z,100.00
2022-08-17T04:51:07.127Z,100.00
2022-08-17T04:53:33.805Z,100.00
2022-08-17T04:56:00.283Z,100.00
2022-08-17T04:58:27.144Z,100.00
2022-08-17T05:00:53.785Z,100.00
2022-08-17T05:03:20.315Z,100.00
2022-08-17T05:05:49.831Z,100.00
2022-08-17T05:08:18.871Z,100.00
2022-08-17T05:10:46.736Z,100.00
2022-08-17T05:13:16.027Z,100.00
2022-08-17T05:15:45.111Z,100.00
2022-08-17T05:18:12.236Z,100.00
2022-08-17T05:20:40.571Z,100.00
2022-08-17T05:23:11.120Z,100.00
2022-08-17T05:25:42.481Z,100.00
2022-08-17T05:28:15.432Z,100.00
2022-08-17T05:30:44.185Z,100.00
2022-08-17T05:33:14.405Z,100.00
2022-08-17T05:35:44.335Z,100.00
2022-08-17T05:38:11.134Z,100.00
2022-08-17T05:40:38.434Z,100.00
2022-08-17T05:43:16.879Z,100.00
2022-08-17T05:46:07.754Z,100.00
2022-08-17T05:48:41.345Z,100.00
2022-08-17T05:51:42.101Z,100.00
2022-08-17T05:54:31.166Z,100.00
2022-08-17T05:57:36.256Z,100.00
2022-08-17T06:00:34.434Z,99.35
2022-08-17T06:03:26.992Z,97.89
2022-08-17T06:05:59.125Z,97.26
2022-08-17T06:08:52.495Z,95.82
2022-08-17T06:11:22.840Z,94.70
2022-08-17T06:14:25.341Z,94.14
2022-08-17T06:17:00.408Z,93.12
2022-08-17T06:19:51.507Z,90.64
2022-08-17T06:22:22.210Z,89.52
2022-08-17T06:24:53.139Z,89.02
2022-08-17T06:27:31.135Z,82.90
2022-08-17T06:30:12.719Z,75.88
2022-08-17T06:32:43.414Z,76.89
2022-08-17T06:35:14.031Z,73.75
2022-08-17T06:37:40.351Z,74.34
2022-08-17T06:40:37.435Z,70.92
2022-08-17T06:43:18.223Z,70.85
2022-08-17T06:45:57.334Z,66.13
2022-08-17T06:48:46.898Z,63.07
2022-08-17T06:51:34.627Z,66.90
2022-08-17T06:54:13.798Z,66.57
2022-08-17T06:56:59.430Z,58.58
2022-08-17T06:59:47.190Z,57.28
2022-08-17T07:02:52.415Z,55.06
2022-08-17T07:05:22.888Z,54.84
2022-08-17T07:08:09.215Z,55.94
2022-08-17T07:10:50.972Z,53.11
2022-08-17T07:13:33.605Z,54.03
2022-08-17T07:16:17.722Z,52.81
2022-08-17T07:18:44.449Z,54.01
2022-08-17T07:21:30.156Z,52.65
2022-08-17T07:24:29.767Z,51.97
2022-08-17T07:27:06.392Z,53.48
2022-08-17T07:29:39.739Z,51.66
2022-08-17T07:32:07.600Z,50.87
2022-08-17T07:34:59.721Z,51.68
2022-08-17T07:37:26.403Z,50.36
2022-08-17T07:40:15.609Z,50.15
2022-08-17T07:42:44.532Z,50.16
2022-08-17T07:45:34.408Z,48.96
2022-08-17T07:48:19.353Z,47.32
2022-08-17T07:50:49.285Z,47.85
2022-08-17T07:53:25.261Z,48.77
2022-08-17T07:55:53.547Z,48.15
2022-08-17T07:58:23.508Z,46.19
2022-08-17T08:01:08.906Z,45.09
2022-08-17T08:03:42.718Z,45.43
2022-08-17T08:06:24.555Z,45.34
2022-08-17T08:08:54.799Z,46.30
2022-08-17T08:11:32.149Z,46.55
2022-08-17T08:14:29.569Z,44.00
2022-08-17T08:17:04.673Z,44.41
2022-08-17T08:19:33.640Z,44.94
2022-08-17T08:22:11.124Z,43.44
2022-08-17T08:25:23.400Z,42.64
2022-08-17T08:28:16.341Z,43.37
2022-08-17T08:30:48.755Z,42.22
2022-08-17T08:33:32.000Z,43.31
2022-08-17T08:36:07.424Z,42.13
2022-08-17T08:38:53.528Z,41.04
2022-08-17T08:41:30.751Z,41.81
2022-08-17T08:44:19.575Z,41.18
2022-08-17T08:46:59.890Z,41.09
2022-08-17T08:50:02.804Z,41.70
2022-08-17T08:52:51.593Z,42.23
2022-08-17T08:55:37.202Z,42.76
2022-08-17T08:58:32.146Z,41.82
2022-08-17T09:00:58.489Z,40.91
2022-08-17T09:03:52.362Z,41.25
2022-08-17T09:06:38.915Z,41.45
2022-08-17T09:09:42.646Z,40.48
2022-08-17T09:12:25.254Z,39.99
2022-08-17T09:15:01.199Z,41.08
2022-08-17T09:17:43.407Z,41.18
2022-08-17T09:20:27.489Z,41.08
2022-08-17T09:23:02.698Z,40.61
2022-08-17T09:25:32.906Z,40.36
2022-08-17T09:28:06.427Z,40.72
2022-08-17T09:30:43.271Z,39.83
2022-08-17T09:33:12.747Z,40.92
2022-08-17T09:35:45.020Z,40.26
2022-08-17T09:38:21.533Z,40.09
2022-08-17T09:41:01.608Z,39.57
2022-08-17T09:43:27.974Z,38.37
2022-08-17T09:46:03.653Z,39.27
2022-08-17T09:48:42.287Z,39.56
2022-08-17T09:51:26.855Z,40.50
2022-08-17T09:53:53.389Z,40.80
2022-08-17T09:56:47.038Z,38.80
2022-08-17T09:59:34.223Z,39.96
2022-08-17T10:02:25.831Z,39.79
2022-08-17T10:05:08.775Z,40.62
2022-08-17T10:08:08.590Z,40.15
2022-08-17T10:10:43.393Z,39.02
2022-08-17T10:13:37.152Z,39.41
2022-08-17T10:16:20.092Z,38.89
2022-08-17T10:19:10.964Z,38.16
2022-08-17T10:22:00.893Z,38.86
2022-08-17T10:25:21.435Z,37.61
2022-08-17T10:27:52.583Z,37.91
2022-08-17T10:30:23.873Z,38.83
2022-08-17T10:32:55.311Z,37.59
2022-08-17T10:35:30.541Z,37.02
2022-08-17T10:38:24.401Z,38.55
2022-08-17T10:41:04.362Z,36.25
2022-08-17T10:43:38.200Z,35.88
2022-08-17T10:46:31.339Z,37.00
2022-08-17T10:49:16.742Z,38.11
2022-08-17T10:51:56.683Z,35.47
2022-08-17T10:54:47.614Z,36.39
2022-08-17T10:57:32.056Z,36.24
2022-08-17T11:00:00.216Z,35.76
2022-08-17T11:02:40.649Z,36.06
2022-08-17T11:05:42.913Z,36.04
2022-08-17T11:08:31.955Z,36.48
2022-08-17T11:11:23.617Z,36.02
2022-08-17T11:14:13.769Z,36.01
2022-08-17T11:16:40.103Z,38.12
2022-08-17T11:19:24.717Z,37.35
2022-08-17T11:22:16.036Z,36.29
2022-08-17T11:24:47.927Z,36.07
2022-08-17T11:27:27.570Z,35.57
2022-08-17T11:30:01.859Z,36.47
2022-08-17T11:32:36.936Z,36.27
2022-08-17T11:35:21.622Z,36.75
2022-08-17T11:38:13.552Z,36.89
2022-08-17T11:41:01.420Z,37.05
2022-08-17T11:43:50.061Z,37.00
2022-08-17T11:46:25.622Z,37.08
2022-08-17T11:49:10.463Z,37.02
2022-08-17T11:52:01.665Z,36.76
2022-08-17T11:54:33.315Z,37.57
2022-08-17T11:57:27.360Z,37.58
2022-08-17T12:00:46.927Z,36.41
2022-08-17T12:03:33.412Z,37.23
2022-08-17T12:06:17.023Z,36.52
2022-08-17T12:08:55.455Z,36.63
2022-08-17T12:11:56.276Z,35.80
2022-08-17T12:15:06.004Z,36.22
2022-08-17T12:17:39.713Z,36.19
2022-08-17T12:20:19.918Z,35.91
2022-08-17T12:23:14.359Z,35.50
2022-08-17T12:25:47.205Z,35.52
2022-08-17T12:28:27.744Z,35.15
2022-08-17T12:30:59.132Z,35.08
2022-08-17T12:33:28.626Z,35.59
2022-08-17T12:35:59.553Z,35.74
2022-08-17T12:38:31.903Z,36.21
2022-08-17T12:40:59.750Z,35.42
2022-08-17T12:43:31.127Z,35.58
2022-08-17T12:46:01.289Z,35.59
2022-08-17T12:48:59.083Z,35.26
2022-08-17T12:51:27.588Z,36.39
2022-08-17T12:53:55.078Z,35.22
2022-08-17T12:56:21.555Z,34.64
2022-08-17T12:58:54.392Z,34.46
2022-08-17T13:01:23.410Z,35.49
2022-08-17T13:03:53.475Z,33.38
2022-08-17T13:06:33.236Z,34.29
2022-08-17T13:09:17.856Z,34.51
2022-08-17T13:11:53.558Z,33.57
2022-08-17T13:14:20.075Z,33.95
2022-08-17T13:16:53.286Z,35.14
2022-08-17T13:19:39.857Z,34.56
2022-08-17T13:22:11.477Z,34.24
2022-08-17T13:24:38.648Z,35.14
2022-08-17T13:27:09.644Z,36.07
2022-08-17T13:29:53.659Z,35.72
2022-08-17T13:32:33.418Z,35.69
2022-08-17T13:35:15.717Z,35.02
2022-08-17T13:38:02.747Z,34.86
2022-08-17T13:40:35.630Z,34.16
2022-08-17T13:43:03.365Z,34.23
2022-08-17T13:45:35.209Z,34.01
2022-08-17T13:48:11.947Z,34.10
2022-08-17T13:50:42.590Z,34.16
2022-08-17T13:53:38.140Z,34.15
2022-08-17T13:56:37.519Z,33.91
2022-08-17T13:59:00.879Z,35.99
2022-08-17T14:01:53.465Z,34.18
2022-08-17T14:04:31.722Z,35.13
2022-08-17T14:07:32.122Z,34.05
2022-08-17T14:10:04.261Z,34.52
2022-08-17T14:12:33.157Z,34.58
2022-08-17T14:15:00.145Z,34.11
2022-08-17T14:17:28.933Z,33.91
2022-08-17T14:19:55.818Z,34.13
2022-08-17T14:22:28.722Z,33.93
2022-08-17T14:24:57.180Z,33.94
2022-08-17T14:27:26.233Z,34.31
2022-08-17T14:29:53.209Z,33.89
2022-08-17T14:32:26.699Z,33.38
2022-08-17T14:34:56.579Z,33.05
2022-08-17T14:37:26.282Z,32.94
2022-08-17T14:39:58.067Z,33.32
2022-08-17T14:42:27.666Z,33.36
2022-08-17T14:44:55.274Z,33.71
2022-08-17T14:47:22.266Z,33.86
2022-08-17T14:49:48.992Z,33.12
2022-08-17T14:52:21.727Z,33.40
2022-08-17T14:54:51.219Z,33.91
2022-08-17T14:57:26.085Z,34.29
2022-08-17T15:00:01.897Z,34.43
2022-08-17T15:02:29.268Z,33.92
2022-08-17T15:05:01.805Z,34.24
2022-08-17T15:07:30.277Z,33.90
2022-08-17T15:10:00.739Z,33.99
2022-08-17T15:12:31.998Z,33.81
2022-08-17T15:15:00.583Z,34.32
2022-08-17T15:17:27.124Z,34.49
2022-08-17T15:20:18.401Z,34.68
2022-08-17T15:22:46.370Z,35.16
2022-08-17T15:25:14.073Z,34.44
2022-08-17T15:27:40.648Z,35.13
2022-08-17T15:30:08.751Z,35.12
2022-08-17T15:32:38.125Z,35.21
2022-08-17T15:35:06.490Z,35.01
2022-08-17T15:37:33.368Z,34.96
2022-08-17T15:40:03.001Z,34.71
2022-08-17T15:42:29.523Z,34.80
2022-08-17T15:44:56.029Z,34.59
2022-08-17T15:47:22.883Z,34.57
2022-08-17T15:49:50.741Z,34.90
2022-08-17T15:52:24.756Z,35.28
2022-08-17T15:54:52.863Z,35.15
2022-08-17T15:57:20.138Z,35.28
2022-08-17T15:59:47.422Z,35.84
2022-08-17T16:03:15.344Z,35.37
2022-08-17T16:05:15.526Z,35.42
2022-08-17T16:07:45.288Z,35.64
2022-08-17T16:10:16.684Z,35.54
2022-08-17T16:12:46.216Z,35.80
2022-08-17T16:15:13.772Z,35.20
2022-08-17T16:17:43.546Z,35.17
2022-08-17T16:20:20.067Z,36.16
2022-08-17T16:22:49.342Z,35.49
2022-08-17T16:25:19.843Z,35.37
2022-08-17T16:27:47.963Z,35.95
2022-08-17T16:30:17.765Z,35.88
2022-08-17T16:32:45.086Z,36.38
2022-08-17T16:35:14.260Z,36.35
2022-08-17T16:37:44.611Z,36.13
2022-08-17T16:40:13.509Z,36.33
2022-08-17T16:42:40.039Z,37.13
2022-08-17T16:45:08.690Z,37.64
2022-08-17T16:47:35.750Z,38.50
2022-08-17T16:50:04.286Z,38.21
2022-08-17T16:52:32.797Z,37.21
2022-08-17T16:55:01.624Z,37.69
2022-08-17T16:57:29.701Z,37.92
2022-08-17T16:59:57.055Z,38.03
2022-08-17T17:02:27.896Z,38.32
2022-08-17T17:05:13.018Z,38.51
2022-08-17T17:08:03.568Z,38.22
2022-08-17T17:10:47.306Z,38.05
2022-08-17T17:13:57.794Z,38.31
2022-08-17T17:17:01.106Z,38.66
2022-08-17T17:19:37.513Z,39.35
2022-08-17T17:22:30.964Z,40.07
2022-08-17T17:25:15.858Z,42.37
2022-08-17T17:27:54.943Z,45.77
2022-08-17T17:30:29.466Z,47.01
2022-08-17T17:33:04.730Z,46.56
2022-08-17T17:35:48.847Z,47.56
2022-08-17T17:38:20.082Z,46.90
2022-08-17T17:40:50.131Z,45.25
2022-08-17T17:43:39.999Z,43.76
2022-08-17T17:46:27.333Z,44.07
2022-08-17T17:48:55.081Z,44.48
2022-08-17T17:52:06.361Z,45.04
2022-08-17T17:54:50.547Z,46.87
2022-08-17T17:57:47.072Z,47.80
2022-08-17T18:00:52.754Z,49.80
2022-08-17T18:03:30.382Z,51.12
2022-08-17T18:06:21.571Z,50.07
2022-08-17T18:09:04.731Z,49.69
2022-08-17T18:12:02.523Z,48.82
2022-08-17T18:14:28.883Z,50.68
2022-08-17T18:16:58.167Z,51.17
2022-08-17T18:19:27.264Z,52.05
2022-08-17T18:22:14.061Z,50.88
2022-08-17T18:24:44.084Z,50.76
2022-08-17T18:27:31.827Z,52.09
2022-08-17T18:30:04.458Z,52.02
2022-08-17T18:32:39.976Z,51.94
2022-08-17T18:35:09.086Z,53.89
2022-08-17T18:37:46.611Z,53.99
2022-08-17T18:40:23.347Z,55.22
2022-08-17T18:43:10.756Z,55.53
2022-08-17T18:45:49.172Z,54.77
2022-08-17T18:48:49.348Z,55.83
2022-08-17T18:51:42.426Z,58.45
2022-08-17T18:54:20.874Z,61.22
2022-08-17T18:56:59.251Z,60.66
2022-08-17T18:59:34.366Z,62.67
2022-08-17T19:02:20.721Z,57.57
2022-08-17T19:05:01.731Z,64.96
2022-08-17T19:07:32.764Z,63.20
2022-08-17T19:10:09.004Z,63.77
2022-08-17T19:13:01.466Z,59.12
2022-08-17T19:15:34.728Z,60.78
2022-08-17T19:18:14.717Z,62.15
2022-08-17T19:20:47.606Z,62.51
2022-08-17T19:23:35.653Z,64.40
2022-08-17T19:26:06.655Z,64.74
2022-08-17T19:29:01.343Z,66.53
2022-08-17T19:31:30.955Z,66.14
2022-08-17T19:34:00.004Z,66.24
2022-08-17T19:36:58.840Z,68.24
2022-08-17T19:39:41.690Z,67.78
2022-08-17T19:42:14.909Z,66.37
2022-08-17T19:44:56.745Z,65.01
2022-08-17T19:47:55.116Z,66.44
2022-08-17T19:50:39.027Z,66.31
2022-08-17T19:54:03.925Z,66.68
2022-08-17T19:56:35.040Z,68.04
2022-08-17T19:59:11.721Z,67.23
2022-08-17T20:01:47.357Z,67.31
2022-08-17T20:04:32.375Z,65.97
2022-08-17T20:07:18.528Z,66.39
2022-08-17T20:09:54.384Z,66.81
2022-08-17T20:12:26.571Z,67.58
2022-08-17T20:14:57.480Z,67.33
2022-08-17T20:17:32.360Z,69.28
2022-08-17T20:20:19.910Z,70.04
2022-08-17T20:23:12.712Z,71.63
2022-08-17T20:26:03.055Z,72.10
2022-08-17T20:28:35.028Z,70.67
2022-08-17T20:31:23.847Z,70.73
2022-08-17T20:33:51.955Z,70.24
2022-08-17T20:36:22.383Z,69.69
2022-08-17T20:38:57.969Z,70.81
2022-08-17T20:41:27.478Z,71.66
2022-08-17T20:43:56.886Z,72.42
2022-08-17T20:46:30.142Z,72.38
2022-08-17T20:49:11.020Z,70.92
2022-08-17T20:52:00.565Z,70.40
2022-08-17T20:54:42.021Z,70.47
2022-08-17T20:57:13.976Z,71.16
2022-08-17T20:59:43.670Z,71.06
2022-08-17T21:02:19.332Z,74.68
2022-08-17T21:04:53.312Z,73.88
2022-08-17T21:07:43.069Z,72.74
2022-08-17T21:10:17.450Z,72.05
2022-08-17T21:12:47.957Z,71.11
2022-08-17T21:15:42.353Z,72.82
2022-08-17T21:18:31.738Z,72.26
2022-08-17T21:21:31.596Z,69.99
2022-08-17T21:24:07.010Z,71.04
2022-08-17T21:27:09.612Z,74.71
2022-08-17T21:29:53.153Z,69.66
2022-08-17T21:32:28.790Z,69.03
2022-08-17T21:35:07.476Z,68.02
2022-08-17T21:37:44.323Z,67.82
2022-08-17T21:40:10.791Z,67.30
2022-08-17T21:42:58.966Z,66.97
2022-08-17T21:45:37.063Z,67.64
2022-08-17T21:48:13.911Z,67.65
2022-08-17T21:50:44.492Z,67.64
2022-08-17T21:53:28.118Z,68.16
2022-08-17T21:55:57.372Z,67.71
2022-08-17T21:58:40.149Z,67.11
2022-08-17T22:01:12.729Z,67.38
2022-08-17T22:03:55.446Z,67.06
2022-08-17T22:06:26.908Z,67.51
2022-08-17T22:09:27.922Z,67.02
2022-08-17T22:12:06.474Z,68.40
2022-08-17T22:14:53.095Z,67.42
2022-08-17T22:17:27.634Z,67.71
2022-08-17T22:19:59.461Z,68.06
2022-08-17T22:22:32.533Z,67.47
2022-08-17T22:25:23.113Z,70.71
2022-08-17T22:27:57.458Z,71.20
2022-08-17T22:30:30.078Z,72.27
2022-08-17T22:32:57.495Z,71.00
2022-08-17T22:35:35.032Z,70.55
2022-08-17T22:38:19.671Z,71.95
2022-08-17T22:40:52.381Z,71.30
2022-08-17T22:43:25.985Z,71.89
2022-08-17T22:45:57.543Z,72.00
2022-08-17T22:48:27.906Z,72.08
2022-08-17T22:51:12.797Z,72.42
2022-08-17T22:54:08.851Z,72.47
2022-08-17T22:57:05.444Z,73.55
2022-08-17T22:59:44.969Z,74.51
2022-08-17T23:02:25.579Z,74.97
2022-08-17T23:05:12.961Z,74.94
2022-08-17T23:07:40.506Z,75.28
2022-08-17T23:10:09.484Z,75.79
2022-08-17T23:12:39.542Z,76.41
2022-08-17T23:15:15.552Z,75.63
2022-08-17T23:17:42.332Z,74.77
2022-08-17T23:20:14.923Z,74.27
2022-08-17T23:22:52.507Z,74.23
2022-08-17T23:25:26.847Z,73.92
2022-08-17T23:27:54.322Z,74.09
2022-08-17T23:30:21.307Z,75.08
2022-08-17T23:32:53.446Z,75.80
2022-08-17T23:35:20.677Z,76.49
2022-08-17T23:38:07.726Z,76.01
2022-08-17T23:40:34.434Z,77.16
2022-08-17T23:43:00.889Z,77.46
2022-08-17T23:45:32.433Z,78.17
2022-08-17T23:47:58.846Z,78.45
2022-08-17T23:50:25.275Z,78.77
2022-08-17T23:52:57.568Z,78.75
2022-08-17T23:55:23.999Z,79.35
2022-08-17T23:57:50.642Z,80.00
